Time;durP1;ratioP1;P1;durP2;ratioP2;P2;SDS_P1;SDS_P2;PMS_P1;PMS_P2;Temp;Humidity;BMP_temperature;BMP_pressure;BME280_temperature;BME280_humidity;BME280_pressure;Samples;Min_cycle;Max_cycle;Signal;HPM_P1;HPM_P2
2022/09/22 00:01:21;;;;;;;5.23;3.37;;;10.10;82.50;;;;;;5073490;28;20492;-45
2022/09/22 00:03:51;;;;;;;5.13;2.60;;;10.20;81.80;;;;;;5059068;28;20965;-46
2022/09/22 00:06:26;;;;;;;3.73;3.03;;;10.20;81.80;;;;;;5055268;28;20593;-45
2022/09/22 00:08:56;;;;;;;4.27;3.20;;;10.20;81.80;;;;;;5058521;28;20465;-45
2022/09/22 00:11:28;;;;;;;6.20;3.30;;;10.20;81.90;;;;;;5053765;28;20461;-45
2022/09/22 00:14:08;;;;;;;2.63;2.43;;;10.10;81.80;;;;;;5073127;28;20515;-45
2022/09/22 00:16:52;;;;;;;3.80;2.70;;;10.10;81.70;;;;;;5057350;28;20464;-46
2022/09/22 00:19:25;;;;;;;3.67;3.00;;;10.00;81.70;;;;;;5070821;28;20496;-45
2022/09/22 00:21:52;;;;;;;3.80;2.90;;;9.90;82.10;;;;;;5072281;28;20857;-45
2022/09/22 00:24:21;;;;;;;6.60;2.50;;;9.90;82.00;;;;;;5073664;28;20521;-45
2022/09/22 00:26:49;;;;;;;4.10;2.80;;;9.90;82.10;;;;;;5055296;28;20456;-45
2022/09/22 00:29:16;;;;;;;3.27;2.93;;;9.90;82.00;;;;;;5061076;28;20458;-45
2022/09/22 00:31:43;;;;;;;4.20;2.57;;;9.80;82.30;;;;;;5074593;28;21011;-45
2022/09/22 00:34:28;;;;;;;3.57;3.13;;;9.90;81.90;;;;;;5046917;28;20959;-45
2022/09/22 00:36:55;;;;;;;3.50;2.63;;;10.00;81.40;;;;;;5074657;28;20508;-45
2022/09/22 00:39:22;;;;;;;3.07;2.80;;;9.80;81.70;;;;;;5073538;28;20449;-45
2022/09/22 00:41:50;;;;;;;2.60;2.40;;;9.80;81.90;;;;;;5070094;28;20523;-45
2022/09/22 00:44:20;;;;;;;3.83;3.43;;;9.80;81.80;;;;;;5072863;28;20532;-45
2022/09/22 00:46:52;;;;;;;3.80;2.60;;;9.90;81.60;;;;;;5073763;28;20535;-45
2022/09/22 00:49:29;;;;;;;3.30;3.00;;;9.90;81.40;;;;;;5073597;28;20947;-45
2022/09/22 00:51:56;;;;;;;5.80;2.87;;;9.90;81.20;;;;;;5070384;28;20837;-45
2022/09/22 00:54:22;;;;;;;3.97;2.83;;;10.00;81.00;;;;;;5043947;28;21051;-45
2022/09/22 00:56:56;;;;;;;5.20;2.73;;;9.90;81.20;;;;;;5053921;28;20509;-45
2022/09/22 00:59:25;;;;;;;3.57;2.80;;;9.80;81.60;;;;;;5054356;28;20523;-46
2022/09/22 01:01:51;;;;;;;3.23;2.80;;;9.80;81.60;;;;;;5068494;28;20470;-45
2022/09/22 01:04:18;;;;;;;3.03;2.73;;;9.80;81.50;;;;;;5071285;28;20797;-46
2022/09/22 01:06:45;;;;;;;6.07;3.10;;;9.80;81.20;;;;;;5065475;28;20588;-45
2022/09/22 01:09:13;;;;;;;4.43;2.90;;;9.70;81.50;;;;;;5072338;28;20474;-45
2022/09/22 01:11:41;;;;;;;5.47;3.40;;;9.70;81.40;;;;;;5075669;28;20832;-45
2022/09/22 01:14:28;;;;;;;3.20;2.90;;;9.70;81.80;;;;;;5071715;28;20848;-45
2022/09/22 01:17:08;;;;;;;4.43;3.37;;;9.70;81.80;;;;;;5067333;28;20461;-45
2022/09/22 01:19:56;;;;;;;4.27;3.83;;;9.70;81.80;;;;;;5045865;28;20461;-45
2022/09/22 01:23:00;;;;;;;3.23;2.87;;;9.70;81.60;;;;;;5064052;28;20461;-45
2022/09/22 01:25:45;;;;;;;7.90;3.53;;;9.50;82.10;;;;;;5067580;28;20920;-45
2022/09/22 01:28:40;;;;;;;3.03;2.63;;;9.50;82.50;;;;;;5070756;28;20482;-45
2022/09/22 01:31:07;;;;;;;7.70;3.37;;;9.40;82.80;;;;;;5076686;28;20477;-45
2022/09/22 01:33:41;;;;;;;6.27;3.50;;;9.50;82.70;;;;;;5077992;28;20452;-45
2022/09/22 01:36:25;;;;;;;4.63;3.50;;;9.60;82.40;;;;;;5062634;28;20496;-45
2022/09/22 01:39:10;;;;;;;6.33;2.77;;;9.60;82.20;;;;;;5074524;28;20518;-45
2022/09/22 01:41:46;;;;;;;3.80;3.07;;;9.60;82.30;;;;;;5056053;28;20489;-45
2022/09/22 01:44:24;;;;;;;3.33;2.90;;;9.70;82.20;;;;;;5076673;28;20491;-45
2022/09/22 01:47:10;;;;;;;2.80;2.47;;;9.70;82.10;;;;;;5074392;28;20496;-45
2022/09/22 01:49:41;;;;;;;4.03;3.20;;;9.60;82.20;;;;;;5073942;28;21129;-45
2022/09/22 01:52:21;;;;;;;4.23;3.00;;;9.60;82.30;;;;;;5074575;28;20469;-45
2022/09/22 01:55:02;;;;;;;4.17;3.13;;;9.40;82.60;;;;;;5053870;28;20484;-45
2022/09/22 01:57:37;;;;;;;5.07;3.43;;;9.30;83.30;;;;;;5074185;28;20520;-45
2022/09/22 02:00:07;;;;;;;3.90;3.17;;;9.30;83.40;;;;;;5069636;28;20850;-45
2022/09/22 02:02:41;;;;;;;3.77;2.77;;;9.40;82.70;;;;;;5074703;28;20518;-45
2022/09/22 02:05:10;;;;;;;4.70;3.30;;;;;;;;;;5076512;28;20457;-45
2022/09/22 02:07:43;;;;;;;6.07;3.13;;;;;;;;;;5069453;28;20910;-45
2022/09/22 02:10:13;;;;;;;5.50;3.43;;;9.30;83.20;;;;;;5074793;28;20923;-45
2022/09/22 02:12:40;;;;;;;3.73;3.27;;;9.30;83.20;;;;;;5073941;28;21108;-45
2022/09/22 02:15:58;;;;;;;3.20;2.90;;;9.40;82.60;;;;;;5074514;28;20492;-45
2022/09/22 02:18:01;;;;;;;2.70;2.50;;;9.40;82.10;;;;;;5076500;28;20564;-45
2022/09/22 02:20:29;;;;;;;3.73;3.43;;;9.40;82.10;;;;;;5077223;28;20511;-45
2022/09/22 02:22:56;;;;;;;3.10;2.80;;;9.20;82.80;;;;;;5058626;28;20542;-45
2022/09/22 02:25:23;;;;;;;3.07;2.83;;;9.10;83.40;;;;;;5077338;28;20453;-45
2022/09/22 02:27:53;;;;;;;3.30;3.00;;;9.20;83.00;;;;;;5078666;28;20456;-45
2022/09/22 02:30:21;;;;;;;7.00;3.20;;;9.30;82.20;;;;;;5074532;28;20873;-45
2022/09/22 02:32:51;;;;;;;4.00;3.20;;;9.20;82.20;;;;;;5060313;28;20457;-45
2022/09/22 02:35:19;;;;;;;3.87;3.03;;;9.00;82.70;;;;;;5055188;28;20485;-45
2022/09/22 02:38:14;;;;;;;4.17;3.40;;;9.10;82.80;;;;;;5076328;28;20545;-47
2022/09/22 02:41:03;;;;;;;2.90;2.70;;;9.10;82.70;;;;;;5074836;28;20458;-47
2022/09/22 02:43:41;;;;;;;3.20;2.40;;;9.20;82.20;;;;;;5044085;28;20489;-46
2022/09/22 02:46:38;;;;;;;4.03;3.07;;;9.10;81.60;;;;;;5060163;28;20457;-47
2022/09/22 02:49:10;;;;;;;4.87;3.03;;;9.10;82.20;;;;;;5061345;28;20571;-46
2022/09/22 02:51:37;;;;;;;2.60;2.40;;;8.90;82.30;;;;;;5059069;28;20990;-46
2022/09/22 02:54:05;;;;;;;5.17;3.70;;;8.80;82.20;;;;;;5072951;28;20466;-46
2022/09/22 02:56:32;;;;;;;2.47;2.20;;;8.80;82.40;;;;;;5073226;28;20837;-46
2022/09/22 02:58:58;;;;;;;2.50;2.40;;;8.80;82.30;;;;;;5074930;28;20526;-46
2022/09/22 03:01:25;;;;;;;4.07;2.57;;;8.90;81.60;;;;;;5073735;28;20494;-46
2022/09/22 03:03:52;;;;;;;2.60;2.40;;;8.90;81.60;;;;;;5055210;28;20457;-47
2022/09/22 03:06:19;;;;;;;3.23;2.67;;;8.90;81.90;;;;;;5075538;28;20876;-46
2022/09/22 03:08:45;;;;;;;3.10;2.40;;;8.90;81.90;;;;;;5077531;28;20544;-47
2022/09/22 03:11:12;;;;;;;2.80;2.60;;;8.70;82.40;;;;;;5074489;28;20496;-47
2022/09/22 03:13:38;;;;;;;5.47;3.50;;;8.70;82.70;;;;;;5075398;28;20469;-46
2022/09/22 03:16:05;;;;;;;3.00;2.40;;;8.80;82.30;;;;;;5074380;28;22132;-47
2022/09/22 03:18:32;;;;;;;3.90;3.30;;;8.90;82.30;;;;;;5047531;28;20530;-46
2022/09/22 03:20:59;;;;;;;3.10;2.80;;;9.00;82.10;;;;;;5054873;28;20549;-46
2022/09/22 03:23:25;;;;;;;3.73;3.10;;;8.90;81.90;;;;;;5035485;28;20470;-46
2022/09/22 03:25:52;;;;;;;3.20;2.90;;;8.80;82.60;;;;;;5056702;28;20503;-46
2022/09/22 03:28:20;;;;;;;4.27;2.90;;;8.70;83.10;;;;;;5053752;28;20463;-46
2022/09/22 03:30:47;;;;;;;8.97;6.80;;;8.70;83.00;;;;;;5054024;28;20489;-47
2022/09/22 03:33:13;;;;;;;7.90;7.10;;;8.80;83.20;;;;;;5035646;28;20965;-46
2022/09/22 03:35:40;;;;;;;6.67;5.07;;;8.80;83.10;;;;;;5037239;28;20541;-46
2022/09/22 03:38:07;;;;;;;6.03;4.00;;;8.80;82.80;;;;;;5054320;28;20906;-46
2022/09/22 03:40:33;;;;;;;4.43;3.20;;;8.80;82.80;;;;;;5055863;28;20590;-46
2022/09/22 03:43:00;;;;;;;5.23;3.20;;;8.70;83.10;;;;;;5052601;28;20812;-46
2022/09/22 03:45:27;;;;;;;5.90;2.77;;;8.80;82.90;;;;;;5052122;28;21034;-47
2022/09/22 03:47:53;;;;;;;3.47;3.17;;;8.80;83.10;;;;;;5057184;28;20535;-46
2022/09/22 03:50:20;;;;;;;3.07;2.53;;;8.70;82.70;;;;;;5054737;28;20814;-46
2022/09/22 03:52:47;;;;;;;7.87;3.43;;;8.80;82.80;;;;;;5053431;28;20458;-46
2022/09/22 03:55:14;;;;;;;3.90;3.27;;;8.70;83.30;;;;;;5039908;28;20568;-46
2022/09/22 03:57:42;;;;;;;2.97;2.67;;;8.70;83.00;;;;;;5035544;28;20581;-47
2022/09/22 04:00:10;;;;;;;3.60;3.30;;;8.70;83.60;;;;;;5053428;28;20466;-47
2022/09/22 04:02:36;;;;;;;5.03;4.53;;;8.60;83.50;;;;;;5056464;28;21002;-46
2022/09/22 04:05:03;;;;;;;4.23;2.90;;;8.70;83.60;;;;;;5049505;28;20565;-46
2022/09/22 04:07:30;;;;;;;4.77;4.20;;;8.60;83.70;;;;;;5037022;28;20454;-46
2022/09/22 04:09:57;;;;;;;5.10;3.87;;;8.80;83.30;;;;;;5030830;28;21024;-47
2022/09/22 04:12:24;;;;;;;5.17;4.67;;;8.90;82.80;;;;;;5053667;28;20562;-46
2022/09/22 04:14:50;;;;;;;5.20;4.07;;;8.80;82.80;;;;;;5041388;28;20512;-46
2022/09/22 04:17:19;;;;;;;5.30;4.80;;;8.90;82.60;;;;;;5050068;28;20493;-46
2022/09/22 04:19:46;;;;;;;5.40;3.70;;;8.90;82.20;;;;;;5055625;28;20486;-46
2022/09/22 04:22:13;;;;;;;5.47;3.73;;;8.90;82.10;;;;;;5057328;28;20482;-46
2022/09/22 04:24:40;;;;;;;4.77;3.53;;;8.90;81.70;;;;;;5057140;28;20490;-46
2022/09/22 04:27:06;;;;;;;5.13;3.83;;;8.90;81.70;;;;;;5055197;28;20547;-46
2022/09/22 04:29:45;;;;;;;3.77;3.30;;;8.90;81.70;;;;;;5054854;28;20457;-46
2022/09/22 04:32:13;;;;;;;4.23;3.83;;;8.90;81.80;;;;;;5048847;28;20497;-46
2022/09/22 04:34:39;;;;;;;6.17;4.23;;;8.90;81.70;;;;;;5042218;28;20461;-47
2022/09/22 04:37:06;;;;;;;5.73;3.50;;;8.90;81.90;;;;;;5052395;28;20466;-46
2022/09/22 04:39:34;;;;;;;4.10;3.33;;;8.80;82.20;;;;;;5054831;28;20490;-46
2022/09/22 04:42:01;;;;;;;6.60;4.10;;;8.80;82.40;;;;;;5037891;28;20457;-47
2022/09/22 04:44:27;;;;;;;3.70;3.33;;;8.80;82.40;;;;;;5054555;28;20485;-47
2022/09/22 04:47:00;;;;;;;5.70;4.80;;;8.80;82.10;;;;;;5036731;28;20458;-47
2022/09/22 04:49:26;;;;;;;5.30;4.80;;;8.70;82.60;;;;;;5040956;28;20466;-47
2022/09/22 04:51:53;;;;;;;7.40;4.70;;;8.50;82.80;;;;;;5053940;28;20972;-47
2022/09/22 04:54:19;;;;;;;4.37;3.97;;;8.50;83.00;;;;;;5051289;28;20977;-47
2022/09/22 04:56:46;;;;;;;4.33;3.93;;;8.30;83.60;;;;;;5051500;28;20501;-47
2022/09/22 04:59:13;;;;;;;4.20;3.80;;;8.40;83.80;;;;;;5031788;28;20575;-47
2022/09/22 05:01:39;;;;;;;4.37;3.87;;;8.50;83.40;;;;;;5055203;28;21070;-47
2022/09/22 05:04:06;;;;;;;6.87;4.90;;;8.60;82.70;;;;;;5057226;28;20811;-46
2022/09/22 05:06:33;;;;;;;6.10;4.73;;;8.50;83.00;;;;;;5040184;28;20837;-47
2022/09/22 05:09:01;;;;;;;8.57;4.10;;;8.40;83.20;;;;;;5038055;28;20478;-46
2022/09/22 05:11:29;;;;;;;5.43;4.57;;;8.40;83.50;;;;;;5056413;28;20561;-46
2022/09/22 05:13:57;;;;;;;5.53;4.90;;;8.50;82.80;;;;;;5046264;28;20523;-47
2022/09/22 05:16:25;;;;;;;3.67;3.37;;;8.60;82.60;;;;;;5031316;28;20532;-46
2022/09/22 05:18:52;;;;;;;6.93;4.00;;;8.50;82.60;;;;;;5043905;28;20854;-47
2022/09/22 05:21:18;;;;;;;5.63;4.20;;;8.40;82.80;;;;;;5051148;28;20490;-47
2022/09/22 05:23:45;;;;;;;4.27;3.87;;;8.40;83.00;;;;;;5057484;28;20481;-47
2022/09/22 05:26:12;;;;;;;4.20;3.80;;;8.50;82.70;;;;;;5051977;28;20507;-47
2022/09/22 05:28:40;;;;;;;7.10;3.83;;;;;;;;;;5058770;28;20462;-47
2022/09/22 05:31:07;;;;;;;5.07;3.60;;;8.50;82.50;;;;;;5054311;28;20458;-47
2022/09/22 05:33:33;;;;;;;4.00;3.33;;;8.40;83.20;;;;;;5055741;28;20557;-46
2022/09/22 05:36:00;;;;;;;4.00;3.37;;;8.40;82.80;;;;;;5054320;28;20644;-47
2022/09/22 05:38:27;;;;;;;3.13;2.83;;;8.30;83.30;;;;;;5056103;28;20505;-46
2022/09/22 05:40:54;;;;;;;3.97;3.57;;;8.30;83.30;;;;;;5037531;28;20976;-47
2022/09/22 05:43:20;;;;;;;4.67;3.73;;;8.20;83.70;;;;;;5054035;28;20489;-47
2022/09/22 05:45:48;;;;;;;7.97;3.80;;;8.20;84.30;;;;;;5034797;28;20500;-46
2022/09/22 05:48:15;;;;;;;5.60;3.70;;;8.30;84.20;;;;;;5061642;28;20450;-47
2022/09/22 05:50:44;;;;;;;4.90;3.63;;;8.40;84.10;;;;;;5043486;28;20476;-47
2022/09/22 05:53:11;;;;;;;5.03;3.63;;;8.40;83.90;;;;;;5037996;28;20489;-46
2022/09/22 05:55:39;;;;;;;7.17;3.73;;;8.40;84.40;;;;;;5053531;28;20545;-46
2022/09/22 05:58:08;;;;;;;5.10;4.13;;;8.50;84.20;;;;;;5058452;28;20482;-47
2022/09/22 06:00:35;;;;;;;6.70;3.17;;;8.50;84.40;;;;;;5058905;28;20977;-47
2022/09/22 06:03:01;;;;;;;5.27;4.03;;;8.60;84.30;;;;;;5037366;28;20771;-46
2022/09/22 06:05:28;;;;;;;4.53;3.60;;;8.60;84.10;;;;;;5039202;28;20453;-46
2022/09/22 06:08:01;;;;;;;9.70;4.27;;;8.70;84.50;;;;;;5058231;28;21058;-46
2022/09/22 06:10:30;;;;;;;7.87;4.10;;;8.70;84.20;;;;;;5055452;28;20528;-46
2022/09/22 06:12:58;;;;;;;4.70;4.07;;;8.80;84.10;;;;;;5055196;28;20500;-46
2022/09/22 06:15:25;;;;;;;4.97;4.47;;;8.90;84.00;;;;;;5040330;28;20508;-46
2022/09/22 06:17:52;;;;;;;4.10;3.70;;;8.90;84.40;;;;;;5051666;28;20974;-46
2022/09/22 06:20:19;;;;;;;8.73;4.07;;;8.90;84.60;;;;;;5038155;28;20921;-46
2022/09/22 06:22:46;;;;;;;7.40;4.90;;;9.00;84.70;;;;;;5055654;28;21085;-46
2022/09/22 06:25:12;;;;;;;5.67;3.60;;;9.00;84.90;;;;;;5056464;28;20496;-46
2022/09/22 06:27:39;;;;;;;4.67;3.80;;;9.00;85.10;;;;;;5042050;28;20462;-46
2022/09/22 06:30:10;;;;;;;4.70;4.07;;;9.10;85.30;;;;;;5053524;28;20528;-46
2022/09/22 06:32:39;;;;;;;7.60;4.57;;;9.10;85.20;;;;;;5056419;28;20465;-46
2022/09/22 06:35:06;;;;;;;5.30;4.20;;;9.10;85.60;;;;;;5056327;28;20445;-46
2022/09/22 06:37:37;;;;;;;4.73;4.33;;;9.20;85.70;;;;;;5039480;28;20466;-46
2022/09/22 06:40:07;;;;;;;5.63;4.43;;;9.20;85.90;;;;;;5050098;28;20490;-47
2022/09/22 06:42:34;;;;;;;5.33;4.20;;;9.30;86.30;;;;;;5053773;28;20486;-46
2022/09/22 06:45:03;;;;;;;6.17;5.50;;;9.30;86.30;;;;;;5058916;28;20519;-47
2022/09/22 06:47:31;;;;;;;5.47;4.43;;;9.30;86.40;;;;;;5043851;28;20445;-47
2022/09/22 06:50:04;;;;;;;5.03;4.23;;;9.40;86.60;;;;;;5057437;28;20504;-46
2022/09/22 06:52:31;;;;;;;5.37;4.30;;;9.40;86.70;;;;;;5058257;28;20495;-47
2022/09/22 06:55:02;;;;;;;11.20;5.53;;;9.50;86.90;;;;;;5058393;28;20466;-47
2022/09/22 06:57:31;;;;;;;7.67;4.90;;;9.50;86.90;;;;;;5054960;28;21251;-46
2022/09/22 07:00:02;;;;;;;5.93;4.50;;;9.60;86.90;;;;;;5043572;28;20485;-47
2022/09/22 07:02:29;;;;;;;8.37;5.30;;;9.60;86.90;;;;;;5030372;28;20838;-47
2022/09/22 07:04:59;;;;;;;5.50;5.00;;;9.60;87.00;;;;;;5038370;28;20583;-46
2022/09/22 07:07:27;;;;;;;6.87;6.10;;;9.60;87.10;;;;;;5051296;28;20896;-47
2022/09/22 07:09:54;;;;;;;5.97;4.77;;;9.70;87.00;;;;;;5034856;28;20494;-47
2022/09/22 07:12:21;;;;;;;7.27;5.50;;;9.80;87.20;;;;;;5057416;28;20490;-47
2022/09/22 07:14:48;;;;;;;7.70;6.27;;;9.80;86.90;;;;;;5036409;28;20978;-47
2022/09/22 07:17:15;;;;;;;10.33;5.27;;;9.90;86.90;;;;;;5014162;28;21025;-46
2022/09/22 07:19:41;;;;;;;7.17;6.43;;;10.00;86.90;;;;;;5030226;28;20513;-47
2022/09/22 07:22:08;;;;;;;8.60;5.43;;;10.00;86.90;;;;;;5051141;28;20492;-47
2022/09/22 07:24:35;;;;;;;6.10;5.60;;;10.10;86.80;;;;;;5046525;28;20544;-47
2022/09/22 07:27:03;;;;;;;5.50;5.00;;;10.20;86.70;;;;;;5034015;28;20510;-47
2022/09/22 07:29:29;;;;;;;8.77;4.83;;;10.20;86.70;;;;;;5052000;28;20489;-47
2022/09/22 07:31:57;;;;;;;6.27;4.83;;;10.30;86.10;;;;;;5057215;28;20497;-47
2022/09/22 07:34:27;;;;;;;4.80;4.40;;;10.40;85.90;;;;;;5037121;28;20465;-47
2022/09/22 07:36:54;;;;;;;7.33;6.63;;;10.50;85.80;;;;;;5051704;28;20878;-47
2022/09/22 07:39:23;;;;;;;6.13;4.20;;;10.60;85.20;;;;;;5038268;28;20570;-47
2022/09/22 07:41:50;;;;;;;5.87;4.90;;;10.60;84.60;;;;;;5054357;28;20880;-47
2022/09/22 07:47:09;;;;;;;5.43;4.13;;;10.70;82.90;;;;;;5055023;28;20462;-47
2022/09/22 07:49:35;;;;;;;7.73;5.23;;;10.80;82.80;;;;;;5042390;28;20466;-47
2022/09/22 07:52:02;;;;;;;5.23;3.87;;;10.90;82.60;;;;;;5058078;28;20489;-47
2022/09/22 07:54:29;;;;;;;4.80;3.87;;;11.00;82.40;;;;;;5053258;28;20502;-47
2022/09/22 07:56:59;;;;;;;5.10;4.00;;;11.20;82.30;;;;;;5057783;28;20522;-47
2022/09/22 07:59:26;;;;;;;4.87;3.97;;;11.20;82.20;;;;;;5074178;28;20940;-47
2022/09/22 08:01:52;;;;;;;7.27;4.50;;;11.30;81.10;;;;;;5057948;28;20514;-47
2022/09/22 08:04:21;;;;;;;31.53;5.60;;;11.40;80.70;;;;;;5071108;28;20548;-47
2022/09/22 08:06:52;;;;;;;5.40;3.50;;;11.50;80.50;;;;;;5077676;28;20534;-47
2022/09/22 08:09:19;;;;;;;6.60;4.63;;;11.70;80.20;;;;;;5078267;28;20994;-47
2022/09/22 08:11:47;;;;;;;4.40;4.00;;;11.80;79.90;;;;;;5077780;28;20473;-47
2022/09/22 08:14:22;;;;;;;4.27;3.87;;;11.90;79.90;;;;;;5059819;28;20467;-47
2022/09/22 08:16:52;;;;;;;3.93;3.30;;;11.80;78.50;;;;;;5076220;28;21017;-47
2022/09/22 08:19:21;;;;;;;7.10;3.97;;;11.90;77.80;;;;;;5077689;28;21020;-46
2022/09/22 08:21:50;;;;;;;3.90;3.30;;;12.00;77.10;;;;;;5045711;28;20452;-46
2022/09/22 08:24:21;;;;;;;3.80;3.50;;;12.10;77.20;;;;;;5059813;28;20517;-46
2022/09/22 08:26:51;;;;;;;3.50;3.20;;;12.20;77.30;;;;;;5073530;28;20464;-46
2022/09/22 08:29:18;;;;;;;3.73;3.03;;;12.30;77.50;;;;;;5079541;28;20466;-46
2022/09/22 08:31:46;;;;;;;4.80;3.33;;;12.40;77.40;;;;;;5060346;28;20556;-46
2022/09/22 08:34:15;;;;;;;3.93;3.33;;;12.50;76.90;;;;;;5078238;28;20491;-46
2022/09/22 08:36:45;;;;;;;3.70;3.40;;;12.50;76.90;;;;;;5061974;28;20508;-46
2022/09/22 08:39:12;;;;;;;3.67;3.10;;;12.60;76.80;;;;;;5081928;28;20861;-46
2022/09/22 08:41:47;;;;;;;5.00;3.00;;;12.70;76.80;;;;;;5045191;28;20509;-46
2022/09/22 08:44:22;;;;;;;3.80;2.90;;;12.70;76.50;;;;;;5048805;28;20529;-46
2022/09/22 08:46:52;;;;;;;3.90;3.60;;;12.80;76.20;;;;;;5053788;28;20453;-46
2022/09/22 08:52:39;;;;;;;4.77;3.67;;;12.90;74.70;;;;;;5049193;28;20564;-46
2022/09/22 08:55:21;;;;;;;4.80;3.63;;;13.00;74.70;;;;;;5076438;28;20487;-46
2022/09/22 08:58:07;;;;;;;3.40;3.10;;;13.00;74.70;;;;;;5078804;28;20454;-46
2022/09/22 09:00:48;;;;;;;5.03;3.73;;;13.10;74.70;;;;;;5071915;28;20554;-46
2022/09/22 09:03:43;;;;;;;3.90;3.43;;;13.10;74.00;;;;;;5070767;28;20483;-46
2022/09/22 09:06:48;;;;;;;6.23;4.83;;;13.10;74.10;;;;;;5075290;28;20460;-46
2022/09/22 09:09:42;;;;;;;5.00;3.57;;;13.20;73.40;;;;;;5061533;28;20519;-47
2022/09/22 09:12:12;;;;;;;5.40;3.60;;;13.20;73.70;;;;;;5073173;28;20966;-46
2022/09/22 09:15:04;;;;;;;6.27;4.30;;;13.30;73.40;;;;;;5057294;28;20804;-46
2022/09/22 09:17:36;;;;;;;8.33;4.00;;;13.30;73.60;;;;;;5057792;28;20852;-46
2022/09/22 09:20:11;;;;;;;3.50;3.20;;;13.40;73.40;;;;;;5050423;28;20522;-46
2022/09/22 09:23:02;;;;;;;5.33;3.83;;;13.50;73.50;;;;;;5063257;28;20505;-47
2022/09/22 09:25:35;;;;;;;4.07;3.10;;;13.50;73.70;;;;;;5074994;28;20480;-47
2022/09/22 09:28:28;;;;;;;4.23;3.20;;;13.50;73.60;;;;;;5074712;28;20888;-47
2022/09/22 09:31:03;;;;;;;6.43;3.97;;;13.60;73.50;;;;;;5058630;28;20485;-47
2022/09/22 09:33:57;;;;;;;4.63;2.93;;;13.60;73.30;;;;;;5076015;28;20949;-47
2022/09/22 09:36:30;;;;;;;3.50;2.97;;;13.70;72.90;;;;;;5063463;28;20905;-47
2022/09/22 09:38:58;;;;;;;5.30;3.30;;;13.70;72.90;;;;;;5076662;28;20493;-47
2022/09/22 09:41:31;;;;;;;3.80;3.50;;;13.70;72.50;;;;;;5040331;28;21150;-47
2022/09/22 09:43:59;;;;;;;4.63;2.97;;;13.90;71.70;;;;;;5059959;28;20449;-47
2022/09/22 09:46:52;;;;;;;7.13;3.50;;;13.90;71.80;;;;;;5041900;28;20979;-47
2022/09/22 09:49:20;;;;;;;5.43;2.70;;;14.00;71.10;;;;;;5073680;28;20943;-47
2022/09/22 09:51:50;;;;;;;3.63;2.53;;;14.10;71.20;;;;;;5078478;28;20741;-47
2022/09/22 09:54:18;;;;;;;5.90;3.27;;;14.10;71.30;;;;;;5078207;28;20445;-47
2022/09/22 09:57:10;;;;;;;6.27;3.30;;;14.20;71.00;;;;;;5081963;28;20452;-46
2022/09/22 10:02:36;;;;;;;3.90;3.00;;;14.40;69.00;;;;;;5074058;28;20565;-47
2022/09/22 10:05:15;;;;;;;2.73;2.50;;;14.40;68.90;;;;;;5077419;28;20440;-47
2022/09/22 10:07:43;;;;;;;3.20;2.70;;;14.50;69.20;;;;;;5074204;28;20493;-46
2022/09/22 10:10:28;;;;;;;3.43;2.00;;;14.60;68.90;;;;;;5074183;28;20471;-47
2022/09/22 10:13:29;;;;;;;3.03;2.20;;;14.80;68.40;;;;;;5058342;28;20481;-47
2022/09/22 10:16:03;;;;;;;3.10;2.50;;;14.90;68.00;;;;;;5072422;28;20925;-47
2022/09/22 10:18:35;;;;;;;2.47;2.00;;;15.10;67.20;;;;;;5063082;28;20871;-47
2022/09/22 10:21:03;;;;;;;5.47;2.20;;;15.30;67.00;;;;;;5069450;28;20581;-47
2022/09/22 10:23:33;;;;;;;2.67;2.20;;;15.40;66.80;;;;;;5056695;28;21040;-47
2022/09/22 10:26:30;;;;;;;3.00;2.10;;;15.60;65.90;;;;;;5071686;28;20971;-47
2022/09/22 10:29:18;;;;;;;2.63;2.30;;;15.90;64.90;;;;;;5071899;28;20489;-47
2022/09/22 10:32:04;;;;;;;2.60;2.20;;;16.00;64.10;;;;;;5077027;28;20551;-47
2022/09/22 10:34:30;;;;;;;3.20;2.10;;;16.10;63.90;;;;;;5077004;28;20550;-47
2022/09/22 10:37:04;;;;;;;3.77;1.83;;;16.20;63.90;;;;;;5076098;28;20500;-49
2022/09/22 10:39:47;;;;;;;2.80;1.70;;;16.20;62.60;;;;;;5080347;28;21270;-47
2022/09/22 10:42:20;;;;;;;3.70;2.57;;;16.40;60.20;;;;;;5061827;28;20535;-47
2022/09/22 10:44:46;;;;;;;2.07;1.87;;;16.50;61.10;;;;;;5060689;28;20514;-47
2022/09/22 10:47:40;;;;;;;1.90;1.80;;;16.50;61.60;;;;;;5060745;28;20938;-47
2022/09/22 10:50:58;;;;;;;2.40;1.80;;;16.50;61.80;;;;;;5071905;28;21057;-47
2022/09/22 10:53:34;;;;;;;4.47;1.87;;;16.50;62.00;;;;;;4985770;28;20477;-47
2022/09/22 10:56:28;;;;;;;3.30;1.60;;;16.40;61.90;;;;;;4996898;28;20523;-47
2022/09/22 10:59:04;;;;;;;3.53;1.90;;;16.40;62.20;;;;;;5041776;28;20469;-47
2022/09/22 11:02:01;;;;;;;4.27;1.60;;;16.30;61.10;;;;;;5071866;28;20484;-47
2022/09/22 11:04:52;;;;;;;2.10;1.70;;;16.20;60.60;;;;;;5074632;28;20900;-47
2022/09/22 11:14:20;;;;;;;1.97;1.63;;;16.10;61.60;;;;;;5079281;28;20468;-47
2022/09/22 11:17:30;;;;;;;2.07;1.70;;;16.00;61.60;;;;;;5066585;28;20510;-47
2022/09/22 11:20:35;;;;;;;1.87;1.47;;;16.00;61.00;;;;;;5074087;28;20922;-47
2022/09/22 11:23:39;;;;;;;1.90;1.40;;;16.00;60.40;;;;;;5051070;28;20828;-47
2022/09/22 11:26:35;;;;;;;1.30;1.10;;;15.90;61.00;;;;;;5060381;28;20885;-47
2022/09/22 11:29:08;;;;;;;1.47;1.10;;;15.80;58.80;;;;;;5076108;28;20465;-47
2022/09/22 11:31:52;;;;;;;3.80;1.20;;;15.90;58.90;;;;;;5063119;28;20553;-47
2022/09/22 11:34:48;;;;;;;5.43;1.83;;;15.90;58.70;;;;;;5074071;28;20499;-47
2022/09/22 11:37:25;;;;;;;2.27;1.23;;;15.90;59.60;;;;;;5071899;28;20560;-47
2022/09/22 11:40:16;;;;;;;2.20;1.40;;;15.90;59.60;;;;;;5064412;28;20484;-47
2022/09/22 11:43:03;;;;;;;1.50;1.40;;;15.90;59.30;;;;;;5069791;28;20464;-47
2022/09/22 11:45:42;;;;;;;1.87;1.30;;;16.00;59.30;;;;;;5076198;28;20895;-47
2022/09/22 11:48:12;;;;;;;2.07;1.10;;;16.00;58.60;;;;;;5066557;28;20985;-47
2022/09/22 11:50:55;;;;;;;1.97;1.43;;;16.00;59.30;;;;;;5069700;28;20651;-47
2022/09/22 11:53:36;;;;;;;1.50;1.40;;;16.10;60.10;;;;;;5063348;28;20547;-47
2022/09/22 11:56:32;;;;;;;2.30;1.40;;;16.00;57.80;;;;;;5054515;28;20476;-47
2022/09/22 11:59:12;;;;;;;3.20;1.50;;;16.00;58.30;;;;;;5057079;28;20469;-47
2022/09/22 12:01:40;;;;;;;1.33;1.23;;;16.00;58.60;;;;;;5074842;28;20505;-47
2022/09/22 12:04:34;;;;;;;3.20;1.33;;;16.00;58.90;;;;;;5075439;28;20581;-47
2022/09/22 12:07:05;;;;;;;1.30;1.20;;;16.10;58.40;;;;;;5071354;28;20507;-47
2022/09/22 12:09:42;;;;;;;1.50;1.40;;;16.20;58.60;;;;;;5067205;28;20544;-47
2022/09/22 12:12:17;;;;;;;1.37;1.27;;;16.20;59.30;;;;;;5051456;28;20568;-47
2022/09/22 12:14:48;;;;;;;1.53;1.40;;;16.20;59.60;;;;;;5060155;28;20457;-47
2022/09/22 12:17:35;;;;;;;2.63;1.40;;;16.20;60.10;;;;;;5072730;28;20966;-47
2022/09/22 12:20:15;;;;;;;1.83;1.50;;;16.10;58.70;;;;;;5055599;28;20488;-47
2022/09/22 12:23:15;;;;;;;1.30;1.20;;;16.10;57.50;;;;;;5076861;28;20483;-47
2022/09/22 12:25:54;;;;;;;1.23;1.10;;;16.10;57.80;;;;;;5072665;28;20546;-48
2022/09/22 12:28:24;;;;;;;2.20;1.00;;;16.10;58.00;;;;;;5070317;28;20959;-47
2022/09/22 12:31:11;;;;;;;1.13;0.90;;;16.10;58.20;;;;;;5074937;28;20461;-47
2022/09/22 12:33:51;;;;;;;2.93;1.17;;;16.20;58.60;;;;;;5070532;28;20463;-47
2022/09/22 12:36:29;;;;;;;1.70;1.27;;;16.30;56.90;;;;;;5072989;28;20503;-47
2022/09/22 12:39:16;;;;;;;1.87;1.00;;;16.30;58.40;;;;;;5056136;28;20495;-47
2022/09/22 12:41:56;;;;;;;5.03;1.80;;;16.30;58.50;;;;;;5073157;28;20527;-47
2022/09/22 12:44:31;;;;;;;2.70;1.50;;;16.20;58.50;;;;;;5057016;28;20461;-47
2022/09/22 12:47:05;;;;;;;3.10;1.50;;;16.20;58.80;;;;;;5072730;28;20480;-48
2022/09/22 12:49:32;;;;;;;1.40;1.30;;;16.20;59.10;;;;;;5073018;28;20453;-48
2022/09/22 12:51:59;;;;;;;1.73;1.43;;;16.20;59.40;;;;;;5078193;28;20516;-47
2022/09/22 12:54:34;;;;;;;2.00;1.37;;;16.20;57.50;;;;;;5070902;28;20457;-48
2022/09/22 12:57:10;;;;;;;1.63;1.00;;;16.20;57.40;;;;;;5052922;28;20516;-48
2022/09/22 12:59:36;;;;;;;1.37;1.27;;;16.30;57.30;;;;;;5067350;28;20514;-47
2022/09/22 13:02:14;;;;;;;1.50;1.07;;;16.40;56.80;;;;;;5069934;28;20869;-48
2022/09/22 13:04:54;;;;;;;1.47;1.17;;;16.40;56.50;;;;;;5051277;28;20464;-48
2022/09/22 13:07:37;;;;;;;2.23;1.10;;;16.50;56.60;;;;;;5069690;28;20489;-48
2022/09/22 13:10:22;;;;;;;5.27;1.30;;;16.50;57.70;;;;;;5068431;28;20492;-47
2022/09/22 13:13:10;;;;;;;1.57;1.00;;;16.50;57.70;;;;;;5058903;28;20489;-48
2022/09/22 13:15:44;;;;;;;1.40;1.13;;;16.50;56.40;;;;;;5050000;28;20503;-47
2022/09/22 13:18:44;;;;;;;1.27;1.17;;;16.40;52.30;;;;;;5051981;28;20457;-48
2022/09/22 13:21:13;;;;;;;1.27;1.10;;;16.40;53.80;;;;;;5057533;28;21796;-48
2022/09/22 13:23:57;;;;;;;2.20;1.20;;;16.50;54.30;;;;;;5067379;28;20455;-48
2022/09/22 13:26:31;;;;;;;2.40;1.10;;;16.50;54.60;;;;;;5056189;28;20461;-47
2022/09/22 13:29:14;;;;;;;2.63;1.47;;;16.50;55.50;;;;;;5074185;28;20464;-48
2022/09/22 13:31:42;;;;;;;2.40;1.30;;;16.50;55.20;;;;;;5059947;28;20815;-48
2022/09/22 13:34:28;;;;;;;1.53;1.43;;;16.50;54.50;;;;;;5056405;28;20460;-48
2022/09/22 13:37:07;;;;;;;1.50;1.20;;;16.60;55.10;;;;;;5076535;28;20464;-48
2022/09/22 13:39:40;;;;;;;5.90;1.97;;;16.60;54.70;;;;;;5074468;28;20521;-48
2022/09/22 13:42:15;;;;;;;3.73;0.90;;;16.60;55.00;;;;;;5080860;28;20578;-48